Time;durP1;ratioP1;P1;durP2;ratioP2;P2;SDS_P1;SDS_P2;PMS_P1;PMS_P2;Temp;Humidity;BMP_temperature;BMP_pressure;BME280_temperature;BME280_humidity;BME280_pressure;Samples;Min_cycle;Max_cycle;Signal;HPM_P1;HPM_P2
2022/01/19 00:04:13;;;;;;;63.38;20.62;;;;;;;-1.00;90.67;100729.65;4538818;77;20996;-86
2022/01/19 00:10:19;;;;;;;51.13;20.88;;;;;;;-0.99;90.81;100710.57;4534084;77;20972;-85
2022/01/19 00:16:48;;;;;;;62.00;21.02;;;;;;;-0.98;90.72;100700.09;4497478;77;21548;-85
2022/01/19 00:22:54;;;;;;;59.30;21.90;;;;;;;-0.95;90.78;100694.19;4543572;77;21000;-85
2022/01/19 00:28:57;;;;;;;59.70;20.37;;;;;;;-0.91;90.88;100688.56;4534415;78;21082;-85
2022/01/19 00:35:17;;;;;;;61.30;22.32;;;;;;;-0.88;90.87;100688.06;4540399;77;20952;-84
2022/01/19 00:41:18;;;;;;;51.28;21.77;;;;;;;-0.86;90.89;100680.53;4547678;78;21059;-85
2022/01/19 00:47:20;;;;;;;52.23;21.20;;;;;;;-0.84;90.89;100682.95;4517586;77;21298;-85
2022/01/19 00:53:21;;;;;;;54.70;21.27;;;;;;;-0.83;90.95;100687.28;4540079;77;20968;-85
2022/01/19 00:59:22;;;;;;;63.02;22.87;;;;;;;-0.81;90.96;100689.16;4534915;77;20954;-84
2022/01/19 01:05:24;;;;;;;55.52;23.52;;;;;;;-0.78;91.10;100692.67;4523284;77;21020;-85
2022/01/19 01:11:32;;;;;;;49.45;21.33;;;;;;;-0.72;91.39;100698.37;4522811;77;21045;-85
2022/01/19 01:24:04;;;;;;;46.92;16.70;;;;;;;-0.70;91.22;100676.87;4534937;78;21047;-86
2022/01/19 01:30:10;;;;;;;51.70;17.45;;;;;;;-0.66;91.23;100661.81;4531235;77;21054;-85
2022/01/19 01:36:32;;;;;;;41.30;14.25;;;;;;;-0.64;91.32;100646.23;4517929;77;21050;-85
2022/01/19 01:42:47;;;;;;;33.98;13.40;;;;;;;-0.61;91.12;100638.20;4527661;77;20992;-85
2022/01/19 01:48:49;;;;;;;28.67;10.72;;;;;;;-0.59;91.17;100627.44;4529310;78;21733;-86
2022/01/19 01:54:52;;;;;;;33.08;12.00;;;;;;;-0.67;91.24;100579.53;4522116;77;21007;-85
2022/01/19 02:01:01;;;;;;;29.10;10.48;;;;;;;-0.67;91.24;100579.53;4532219;77;20972;-86
2022/01/19 02:07:30;;;;;;;34.27;10.98;;;;;;;-0.51;90.74;100591.97;4507114;78;21858;-85
2022/01/19 02:28:59;;;;;;;19.97;7.90;;;;;;;-0.40;90.30;100559.98;4544651;78;22012;-85
2022/01/19 02:40:18;;;;;;;26.68;7.78;;;;;;;-0.38;90.31;100544.39;4485944;78;20991;-85
2022/01/19 02:52:38;;;;;;;18.15;8.83;;;;;;;-0.48;90.00;100526.88;4498405;77;20976;-85
2022/01/19 02:59:00;;;;;;;20.30;8.30;;;;;;;-0.34;89.87;100544.12;4394302;80;21103;-86
2022/01/19 03:11:31;;;;;;;25.17;7.67;;;;;;;-0.31;89.81;100518.55;4536689;78;21985;-86
2022/01/19 03:17:57;;;;;;;22.35;8.38;;;;;;;-0.36;89.92;100507.80;4510286;77;21027;-86
2022/01/19 03:23:59;;;;;;;20.72;7.97;;;;;;;-0.34;89.22;100494.34;4376772;78;21019;-85
2022/01/19 03:30:25;;;;;;;12.78;5.75;;;;;;;-0.32;89.58;100487.34;4406227;78;21011;-85
2022/01/19 03:36:27;;;;;;;13.70;6.30;;;;;;;-0.29;89.19;100490.31;4367025;78;21091;-86
2022/01/19 03:42:29;;;;;;;20.57;6.85;;;;;;;-0.29;89.70;100490.31;4390654;78;21034;-86
2022/01/19 03:55:08;;;;;;;22.95;6.45;;;;;;;-0.27;88.96;100477.37;4453335;78;21304;-87
2022/01/19 04:01:42;;;;;;;22.55;6.53;;;;;;;-0.26;88.87;100463.39;4409666;78;22047;-86
2022/01/19 04:07:56;;;;;;;22.27;6.92;;;;;;;-0.26;88.73;100453.45;4421376;78;21091;-86
2022/01/19 04:19:59;;;;;;;20.65;6.37;;;;;;;-0.27;88.30;100453.72;4449292;78;21487;-86
2022/01/19 04:26:03;;;;;;;15.98;6.42;;;;;;;-0.28;88.41;100454.77;4532500;77;21047;-86
2022/01/19 05:17:59;;;;;;;27.40;8.48;;;;;;;-0.36;87.84;100381.34;4394534;80;21567;-86
2022/01/19 05:24:10;;;;;;;17.70;7.30;;;;;;;-0.38;87.67;100374.89;4369288;80;20984;-86
2022/01/19 05:30:17;;;;;;;22.05;8.38;;;;;;;-0.40;87.29;100365.45;4362182;81;21106;-86
2022/01/19 05:36:35;;;;;;;23.18;7.95;;;;;;;-0.48;87.47;100371.38;4228494;83;21028;-86
2022/01/19 05:42:57;;;;;;;;;;;;;;;-0.50;87.51;100362.23;4231749;84;21111;-85
2022/01/19 05:49:15;;;;;;;26.37;9.23;;;;;;;-0.55;87.46;100347.43;4232279;84;20480;-86
2022/01/19 05:55:17;;;;;;;23.85;9.93;;;;;;;-0.61;87.51;100337.75;4234932;84;21007;-86
2022/01/19 06:01:20;;;;;;;32.00;11.33;;;;;;;-0.66;87.46;100326.98;4350560;81;21570;-85
2022/01/19 06:07:28;;;;;;;29.65;11.12;;;;;;;-0.74;87.40;100324.87;4355189;81;21071;-85
2022/01/19 06:13:28;;;;;;;;;;;;;;;-0.87;87.32;100304.41;4376271;81;21071;-85
2022/01/19 06:19:49;;;;;;;28.73;11.18;;;;;;;-0.95;87.32;100319.73;4366499;80;20586;-85
2022/01/19 06:26:35;;;;;;;29.07;11.55;;;;;;;-1.06;87.25;100306.82;4235745;82;21086;-85
2022/01/19 06:33:07;;;;;;;28.73;10.78;;;;;;;-1.32;87.32;100294.43;4218074;82;21163;-86
2022/01/19 06:39:44;;;;;;;37.50;12.53;;;;;;;-1.45;87.53;100284.19;4252679;82;21070;-85
2022/01/19 06:45:56;;;;;;;29.42;11.15;;;;;;;-1.57;87.53;100273.67;4378633;80;20998;-85
2022/01/19 06:52:53;;;;;;;29.67;12.20;;;;;;;-1.62;87.37;100272.34;4193479;82;21744;-85
2022/01/19 06:59:00;;;;;;;33.38;12.75;;;;;;;-1.71;87.46;100283.30;4362143;79;21023;-85
2022/01/19 07:05:54;;;;;;;30.40;12.80;;;;;;;-1.82;87.46;100290.26;4361034;80;21601;-85
2022/01/19 07:12:38;;;;;;;33.30;12.90;;;;;;;-1.88;87.50;100279.23;4081863;86;21678;-84
2022/01/19 07:18:40;;;;;;;28.15;12.82;;;;;;;-1.89;87.59;100287.00;4089715;85;21063;-85
2022/01/19 07:25:03;;;;;;;26.87;12.68;;;;;;;-1.89;87.60;100285.13;4042363;85;21072;-85
2022/01/19 07:31:15;;;;;;;38.03;14.23;;;;;;;-1.90;87.55;100263.92;4112723;85;21134;-85
2022/01/19 07:37:22;;;;;;;32.57;13.53;;;;;;;-1.87;87.37;100250.79;4239555;82;21577;-85
2022/01/19 07:43:24;;;;;;;51.83;20.25;;;;;;;-1.85;87.36;100241.13;4250363;82;21035;-85
2022/01/19 07:49:37;;;;;;;44.70;19.62;;;;;;;-1.89;87.34;100230.11;4460686;78;21519;-86
2022/01/19 07:56:29;;;;;;;40.73;17.23;;;;;;;-1.61;88.08;100235.54;4446039;77;21831;-86
2022/01/19 08:03:04;;;;;;;44.70;19.37;;;;;;;-0.91;88.14;100224.83;4418083;79;21052;-86
2022/01/19 08:16:04;;;;;;;42.65;18.00;;;;;;;0.43;86.80;100209.02;4398399;80;21102;-86
2022/01/19 08:28:59;;;;;;;36.25;16.12;;;;;;;1.24;86.65;100212.67;4397347;80;21035;-86
2022/01/19 08:35:12;;;;;;;43.45;19.50;;;;;;;1.34;85.53;100203.15;4304949;81;21035;-85
2022/01/19 08:48:29;;;;;;;51.00;21.30;;;;;;;1.77;84.80;100185.14;4339676;80;21638;-86
2022/01/19 08:54:35;;;;;;;55.20;21.95;;;;;;;2.01;84.49;100172.39;4357058;80;21559;-87
2022/01/19 09:00:44;;;;;;;53.65;22.95;;;;;;;2.33;84.52;100153.59;4518636;77;21023;-87
2022/01/19 09:06:49;;;;;;;50.70;20.43;;;;;;;2.45;83.57;100158.80;4515933;77;21025;-87
2022/01/19 09:12:50;;;;;;;43.40;18.45;;;;;;;2.66;83.44;100147.91;4525401;78;21662;-87
2022/01/19 09:18:51;;;;;;;62.58;24.12;;;;;;;2.97;82.37;100122.52;4528568;76;21035;-87
2022/01/19 09:24:56;;;;;;;43.63;19.05;;;;;;;3.48;83.04;100126.44;4534633;77;21051;-87
2022/01/19 09:31:00;;;;;;;51.95;21.70;;;;;;;3.91;81.64;100114.16;4539454;77;21476;-86
2022/01/19 09:37:09;;;;;;;54.13;21.30;;;;;;;3.81;81.31;100113.81;4539417;78;20948;-87
2022/01/19 09:43:22;;;;;;;58.35;21.33;;;;;;;4.14;80.03;100108.48;4532023;77;21435;-86
2022/01/19 09:49:23;;;;;;;41.20;18.67;;;;;;;3.87;78.92;100080.66;4516147;77;21550;-87
2022/01/19 09:55:24;;;;;;;41.28;18.15;;;;;;;3.82;79.77;100072.64;4532881;77;21913;-87
2022/01/19 10:01:26;;;;;;;42.17;18.57;;;;;;;3.88;79.13;100069.52;4509127;77;21077;-87
2022/01/19 10:07:27;;;;;;;40.90;19.60;;;;;;;3.91;79.48;100058.62;4520621;78;21011;-89
2022/01/19 10:20:25;;;;;;;43.90;18.25;;;;;;;4.52;78.12;100033.02;4541918;77;21035;-88
2022/01/19 10:26:44;;;;;;;36.70;17.42;;;;;;;4.57;77.22;100013.91;4536078;77;21065;-88
2022/01/19 10:32:55;;;;;;;43.45;17.48;;;;;;;4.57;77.08;100011.98;4532711;77;21059;-88
2022/01/19 10:39:09;;;;;;;40.67;18.30;;;;;;;4.81;76.73;100001.58;4505544;77;20989;-88
2022/01/19 10:45:13;;;;;;;38.95;17.35;;;;;;;4.47;75.57;99988.40;4517015;77;21006;-87
2022/01/19 10:51:43;;;;;;;38.15;16.07;;;;;;;4.14;74.86;99974.88;4509197;77;21019;-87
2022/01/19 10:58:00;;;;;;;45.52;19.87;;;;;;;4.05;75.56;99968.06;4520978;77;21052;-88
2022/01/19 11:04:42;;;;;;;39.00;17.12;;;;;;;3.87;74.86;99947.94;4513041;77;21111;-89
2022/01/19 11:10:52;;;;;;;32.70;15.60;;;;;;;3.97;76.50;99934.13;4517718;77;20966;-87
2022/01/19 11:16:54;;;;;;;32.00;15.78;;;;;;;4.01;75.92;99929.13;4532649;77;20988;-89
2022/01/19 11:23:41;;;;;;;35.52;15.95;;;;;;;3.90;75.64;99913.45;4536108;77;21055;-89
2022/01/19 11:29:43;;;;;;;28.90;13.45;;;;;;;3.65;75.28;99905.38;4529467;77;20964;-89
2022/01/19 11:35:47;;;;;;;29.95;13.65;;;;;;;3.23;75.11;99888.23;4529003;77;21019;-88
2022/01/19 11:42:05;;;;;;;30.62;12.95;;;;;;;3.05;75.36;99866.20;4526552;77;21000;-90
2022/01/19 11:48:35;;;;;;;29.07;12.50;;;;;;;2.82;75.16;99859.92;4495277;77;21609;-88
2022/01/19 11:54:37;;;;;;;32.28;12.40;;;;;;;2.71;75.08;99854.48;4489902;78;21097;-89
2022/01/19 12:00:42;;;;;;;27.40;12.65;;;;;;;2.54;74.92;99836.73;4407826;79;21050;-89
2022/01/19 12:06:45;;;;;;;31.40;12.90;;;;;;;2.45;75.29;99824.23;4349432;80;21047;-89
2022/01/19 12:19:43;;;;;;;28.85;12.00;;;;;;;2.28;75.25;99806.48;4527495;77;22227;-89
2022/01/19 12:25:57;;;;;;;31.17;13.43;;;;;;;2.05;75.03;99790.70;4523146;77;21013;-90
2022/01/19 12:32:06;;;;;;;25.95;12.88;;;;;;;1.99;75.53;99783.03;4502140;77;21139;-90
2022/01/19 12:38:23;;;;;;;35.38;13.40;;;;;;;1.97;75.42;99762.27;4501110;77;21147;-89
2022/01/19 12:44:53;;;;;;;31.68;14.30;;;;;;;1.89;75.50;99747.57;4498751;77;21003;-90
2022/01/19 12:50:55;;;;;;;35.20;14.70;;;;;;;1.88;75.74;99728.41;4507423;77;21047;-90
2022/01/19 12:57:03;;;;;;;33.75;14.25;;;;;;;1.75;75.83;99708.16;4499314;77;20995;-90
2022/01/19 13:03:21;;;;;;;35.13;15.32;;;;;;;1.68;75.92;99701.81;4428630;78;21027;-90
2022/01/19 13:09:33;;;;;;;52.40;21.25;;;;;;;1.74;76.13;99693.08;4495597;77;21102;-90
2022/01/19 13:15:49;;;;;;;40.40;17.23;;;;;;;1.73;76.13;99688.22;4498400;77;21561;-89
2022/01/19 13:22:02;;;;;;;39.88;18.37;;;;;;;1.65;75.94;99675.42;4491096;77;21028;-89
2022/01/19 13:28:03;;;;;;;33.58;15.40;;;;;;;1.64;76.20;99671.13;4517230;77;21023;-90
2022/01/19 13:34:05;;;;;;;41.42;19.02;;;;;;;1.61;76.21;99654.97;4532600;77;21071;-89
2022/01/19 13:40:20;;;;;;;37.73;16.10;;;;;;;1.55;76.22;99648.66;4545985;76;21495;-89
2022/01/19 13:46:29;;;;;;;34.75;17.05;;;;;;;1.50;76.27;99648.17;4533105;77;21020;-90
2022/01/19 13:52:30;;;;;;;37.30;16.10;;;;;;;1.48;76.22;99650.39;4529304;76;21024;-89
2022/01/19 13:58:41;;;;;;;39.53;16.23;;;;;;;1.41;76.31;99637.03;4541741;77;21039;-89
2022/01/19 14:04:53;;;;;;;42.40;16.75;;;;;;;1.37;76.60;99624.72;4539379;77;21012;-89
2022/01/19 14:10:54;;;;;;;40.60;15.85;;;;;;;1.36;76.72;99610.95;4536357;77;21494;-89
2022/01/19 14:16:56;;;;;;;38.13;16.62;;;;;;;1.33;76.58;99609.43;4526573;77;21046;-90
2022/01/19 14:23:12;;;;;;;39.67;16.52;;;;;;;1.27;76.79;99607.36;4533519;77;21059;-89
2022/01/19 14:29:13;;;;;;;33.98;15.85;;;;;;;1.22;76.82;99599.36;4538698;77;21748;-89
2022/01/19 14:35:37;;;;;;;39.80;16.05;;;;;;;1.15;77.06;99584.69;4542970;77;20983;-89
2022/01/19 14:41:38;;;;;;;35.60;15.70;;;;;;;1.09;77.11;99575.09;4523285;77;21016;-89
2022/01/19 14:47:40;;;;;;;38.60;17.75;;;;;;;0.97;77.06;99559.97;4499740;77;21524;-89
2022/01/19 14:53:41;;;;;;;42.03;17.12;;;;;;;0.88;77.35;99544.21;4430630;79;20996;-88
2022/01/19 14:59:42;;;;;;;44.42;19.85;;;;;;;0.80;77.40;99538.19;4448678;78;21037;-89
2022/01/19 15:05:44;;;;;;;44.55;18.57;;;;;;;0.75;77.52;99529.63;4439744;79;21093;-89
2022/01/19 15:11:47;;;;;;;41.37;19.62;;;;;;;0.66;77.64;99527.94;4445563;79;21063;-88
2022/01/19 15:17:48;;;;;;;54.63;23.63;;;;;;;0.50;77.70;99513.91;4450879;79;21024;-88
2022/01/19 15:23:50;;;;;;;53.15;23.05;;;;;;;0.34;77.79;99492.95;4300512;81;21052;-89
2022/01/19 15:29:51;;;;;;;50.98;24.35;;;;;;;0.12;78.05;99483.36;4418771;78;22237;-89
2022/01/19 15:35:52;;;;;;;60.95;26.97;;;;;;;-0.08;78.17;99477.21;4436102;79;21015;-89
2022/01/19 15:41:54;;;;;;;53.00;24.32;;;;;;;-0.31;78.28;99470.05;4428820;79;21011;-88
2022/01/19 15:47:57;;;;;;;51.53;25.45;;;;;;;-0.44;78.83;99470.00;4414536;79;21077;-88
2022/01/19 15:54:09;;;;;;;62.20;29.10;;;;;;;-0.63;78.52;99467.84;4435383;78;21080;-87
2022/01/19 16:00:11;;;;;;;74.55;34.35;;;;;;;-0.84;78.93;99460.60;4433010;78;21020;-87
2022/01/19 16:06:21;;;;;;;95.00;37.17;;;;;;;-0.98;79.11;99434.18;4431928;78;21019;-89
2022/01/19 16:12:26;;;;;;;111.88;46.28;;;;;;;-1.04;79.59;99444.75;4293061;81;21019;-89
2022/01/19 16:18:28;;;;;;;102.47;43.38;;;;;;;-1.11;79.81;99414.73;4290414;82;21008;-88
2022/01/19 16:30:51;;;;;;;121.57;53.35;;;;;;;-1.38;79.91;99405.16;4029771;87;21621;-87
2022/01/19 16:36:53;;;;;;;125.10;51.63;;;;;;;-1.45;80.27;99399.31;3998246;88;21115;-88
2022/01/19 16:42:57;;;;;;;123.97;54.07;;;;;;;-1.57;80.39;99390.06;4004771;87;21039;-88
2022/01/19 16:49:05;;;;;;;121.47;47.88;;;;;;;-1.72;80.50;99377.08;3989911;87;21086;-88
2022/01/19 16:55:06;;;;;;;104.17;44.55;;;;;;;-1.86;80.79;99360.06;4025334;86;21058;-88
2022/01/19 17:01:16;;;;;;;98.12;42.88;;;;;;;-1.95;80.86;99365.80;4004371;87;21368;-89
2022/01/19 17:07:17;;;;;;;118.22;50.05;;;;;;;-2.05;81.65;99369.14;4027321;88;21141;-88
2022/01/19 17:13:57;;;;;;;131.65;55.88;;;;;;;-2.18;81.32;99356.38;4006749;87;21528;-88
2022/01/19 17:20:12;;;;;;;127.72;56.13;;;;;;;-2.25;81.36;99343.83;3989838;87;21073;-88
2022/01/19 17:26:15;;;;;;;100.90;47.90;;;;;;;-2.44;81.40;99336.23;4095281;83;21097;-88
2022/01/19 17:32:16;;;;;;;115.63;53.27;;;;;;;-2.54;81.81;99330.97;4128067;85;21909;-88
2022/01/19 17:38:23;;;;;;;124.10;51.63;;;;;;;-2.65;81.94;99316.06;4143159;84;21596;-88
2022/01/19 17:44:55;;;;;;;110.97;48.53;;;;;;;-2.78;81.77;99304.64;4010942;85;10000161;-88
2022/01/19 17:51:27;;;;;;;97.90;46.00;;;;;;;-3.01;81.85;99278.05;4079720;85;21487;-88
2022/01/19 17:57:07;;;;;;;116.63;51.43;;;;;;;-3.08;82.72;99276.21;4127311;85;21608;-88
2022/01/19 18:03:11;;;;;;;120.70;53.07;;;;;;;-3.09;82.65;99274.63;4142144;84;21046;-88
2022/01/19 18:09:21;;;;;;;125.40;54.43;;;;;;;-3.13;82.52;99253.48;4082899;85;21070;-88
2022/01/19 18:15:43;;;;;;;123.37;58.03;;;;;;;-3.29;82.25;99240.75;4119066;84;21646;-88
2022/01/19 18:21:48;;;;;;;113.23;52.17;;;;;;;-3.53;82.26;99220.33;4079062;85;21151;-88
2022/01/19 18:28:05;;;;;;;125.37;56.13;;;;;;;-3.65;82.94;99207.28;4081004;87;21107;-88
2022/01/19 18:34:06;;;;;;;141.50;62.20;;;;;;;-3.71;83.37;99201.70;4044394;85;21507;-88
2022/01/19 18:40:14;;;;;;;199.63;82.83;;;;;;;-3.80;83.23;99193.20;3990488;88;21061;-88
2022/01/19 18:46:15;;;;;;;181.03;74.70;;;;;;;-3.83;83.24;99176.37;3886285;86;10000052;-88
2022/01/19 18:52:23;;;;;;;190.70;75.27;;;;;;;-3.88;82.99;99160.34;4037277;85;21074;-88
2022/01/19 18:58:22;;;;;;;195.20;80.37;;;;;;;-4.06;83.21;99155.13;4004321;87;21587;-87
2022/01/19 19:04:23;;;;;;;201.33;84.97;;;;;;;-3.97;83.60;99162.82;4081348;85;21081;-88
2022/01/19 19:10:40;;;;;;;162.97;68.33;;;;;;;-3.92;83.48;99144.61;3990069;88;21049;-87
2022/01/19 19:16:30;;;;;;;;;;;;;;;-4.08;82.87;99127.05;3972413;88;21519;-87
2022/01/19 19:22:31;;;;;;;175.93;70.30;;;;;;;-4.07;84.31;99116.08;3955305;88;20236;-87
2022/01/19 19:28:33;;;;;;;178.10;74.00;;;;;;;-4.06;83.89;99113.69;3969360;88;21996;-88
2022/01/19 19:34:35;;;;;;;227.60;94.53;;;;;;;-3.98;83.94;99089.56;3992364;88;21083;-88
2022/01/19 19:40:40;;;;;;;183.07;78.43;;;;;;;-4.07;83.71;99070.63;4131864;85;21046;-88
2022/01/19 19:46:43;;;;;;;158.63;66.33;;;;;;;-4.17;83.57;99075.25;4124952;84;21073;-88
2022/01/19 19:52:47;;;;;;;185.77;79.40;;;;;;;-4.32;83.65;99056.65;4121300;85;22296;-87
2022/01/19 19:58:47;;;;;;;166.23;68.20;;;;;;;-4.42;84.24;99029.45;4121781;84;21035;-87
2022/01/19 20:04:49;;;;;;;169.27;67.47;;;;;;;-4.40;84.56;98988.53;4102217;85;21731;-88
2022/01/19 20:10:51;;;;;;;154.57;63.30;;;;;;;-4.40;84.39;98973.05;4117918;85;21106;-88
2022/01/19 20:16:52;;;;;;;139.93;60.73;;;;;;;-4.30;84.96;98960.41;4104696;84;21135;-89
2022/01/19 20:22:54;;;;;;;153.10;62.53;;;;;;;-4.23;84.75;98946.20;4107949;85;21465;-88
2022/01/19 20:28:55;;;;;;;222.33;89.93;;;;;;;-4.33;84.14;98936.11;4127361;84;21059;-89
2022/01/19 20:34:59;;;;;;;242.80;96.70;;;;;;;-4.35;84.96;98931.60;4122316;85;21577;-88
2022/01/19 20:41:00;;;;;;;245.60;98.33;;;;;;;-4.40;85.22;98939.66;4127728;84;21058;-89
2022/01/19 20:47:01;;;;;;;246.83;99.53;;;;;;;-4.35;85.54;98936.95;4006488;85;9999668;-89
2022/01/19 20:53:03;;;;;;;220.63;91.20;;;;;;;-4.29;85.32;98939.83;4081531;85;21086;-88
2022/01/19 20:59:04;;;;;;;193.70;78.73;;;;;;;-4.30;84.96;98932.34;4118221;84;21023;-89
2022/01/19 21:05:10;;;;;;;230.67;91.90;;;;;;;-4.49;84.77;98927.97;4116318;84;21542;-90
2022/01/19 21:11:10;;;;;;;217.03;90.37;;;;;;;-4.62;85.14;98940.09;4129411;84;21030;-89
2022/01/19 21:17:13;;;;;;;219.87;94.80;;;;;;;-4.62;87.45;98911.23;4121741;84;21014;-88
2022/01/19 21:23:16;;;;;;;217.70;90.63;;;;;;;-4.58;87.28;98892.22;4032680;87;21135;-88
2022/01/19 21:29:17;;;;;;;216.83;93.13;;;;;;;-4.52;86.40;98904.45;4040603;86;21062;-87
2022/01/19 21:35:20;;;;;;;210.53;82.30;;;;;;;-4.61;86.80;98909.62;4049683;86;21543;-89
2022/01/19 21:41:21;;;;;;;234.40;94.93;;;;;;;-4.51;86.93;98907.41;4094012;85;21126;-88
2022/01/19 21:47:22;;;;;;;247.80;95.63;;;;;;;-4.54;87.06;98915.42;4128809;85;21762;-88
2022/01/19 21:53:24;;;;;;;260.43;98.97;;;;;;;-4.49;87.05;98918.63;4136161;84;21089;-88
2022/01/19 21:59:25;;;;;;;263.57;99.57;;;;;;;-4.45;87.15;98899.08;4051163;86;21644;-88
2022/01/19 22:05:26;;;;;;;201.57;79.67;;;;;;;-4.41;87.31;98884.59;4057664;85;21066;-88
2022/01/19 22:11:28;;;;;;;235.80;89.43;;;;;;;-4.29;87.88;98892.50;4096082;85;21588;-88
2022/01/19 22:17:29;;;;;;;217.97;87.77;;;;;;;-4.20;88.34;98884.16;4106895;85;21065;-87
2022/01/19 22:23:31;;;;;;;223.67;86.67;;;;;;;-4.11;87.80;98889.67;4103416;84;21047;-87
2022/01/19 22:29:32;;;;;;;220.07;84.07;;;;;;;-4.08;87.88;98877.88;4060358;86;21098;-87
2022/01/19 22:35:34;;;;;;;193.63;78.13;;;;;;;-3.99;87.83;98865.48;4080857;84;21010;-87
2022/01/19 22:41:35;;;;;;;187.00;74.87;;;;;;;-3.95;88.01;98857.16;4140664;85;21039;-87
2022/01/19 22:47:37;;;;;;;197.40;79.07;;;;;;;-3.87;88.03;98847.72;4022950;87;21136;-87
2022/01/19 22:53:41;;;;;;;197.20;77.47;;;;;;;-3.81;87.80;98834.53;4028766;87;21053;-87
2022/01/19 22:59:43;;;;;;;194.93;75.80;;;;;;;-3.76;87.91;98823.78;4138946;84;21594;-87
2022/01/19 23:05:45;;;;;;;202.90;80.53;;;;;;;-3.68;87.97;98819.91;4129700;84;21390;-87
2022/01/19 23:11:50;;;;;;;184.07;71.27;;;;;;;-3.72;88.06;98817.57;4138086;85;21126;-87
2022/01/19 23:17:51;;;;;;;196.47;77.07;;;;;;;-3.74;88.67;98815.71;4126954;85;21089;-87
2022/01/19 23:23:52;;;;;;;186.83;76.37;;;;;;;-3.92;88.76;98805.78;4140332;84;21046;-88
2022/01/19 23:29:53;;;;;;;174.53;71.70;;;;;;;-3.92;88.45;98816.48;4134128;85;22302;-88
2022/01/19 23:36:02;;;;;;;158.60;65.30;;;;;;;-3.89;88.26;98813.77;4137450;84;21075;-88
2022/01/19 23:48:24;;;;;;;52.70;21.30;;;;;;;-3.99;89.30;98808.52;4139701;84;20145;-88
2022/01/19 23:54:24;;;;;;;28.93;13.63;;;;;;;-3.29;91.92;98800.95;4141173;84;21014;-87
